createdAt,value
2018-03-24T00:01:04.589Z,71.59
2018-03-24T00:03:32.349Z,71.19
2018-03-24T00:05:59.821Z,71.45
2018-03-24T00:08:27.274Z,70.09
2018-03-24T00:10:55.030Z,70.06
2018-03-24T00:13:22.500Z,71.19
2018-03-24T00:15:49.956Z,70.77
2018-03-24T00:18:17.721Z,70.07
2018-03-24T00:20:45.872Z,69.42
2018-03-24T00:23:13.329Z,68.89
2018-03-24T00:25:40.902Z,69.18
2018-03-24T00:28:08.367Z,68.79
2018-03-24T00:30:35.846Z,71.34
2018-03-24T00:33:03.569Z,73.73
2018-03-24T00:35:31.032Z,76.26
2018-03-24T00:37:58.505Z,75.76
2018-03-24T00:40:26.400Z,75.49
2018-03-24T00:42:53.857Z,75.03
2018-03-24T00:45:21.326Z,74.79
2018-03-24T00:47:49.080Z,74.79
2018-03-24T00:50:16.554Z,73.14
2018-03-24T00:52:44.038Z,74.52
2018-03-24T00:55:11.768Z,74.18
2018-03-24T00:57:39.237Z,74.32
2018-03-24T01:00:06.696Z,74.96
2018-03-24T01:02:34.761Z,76.05
2018-03-24T01:05:02.219Z,76.20
2018-03-24T01:07:29.681Z,75.99
2018-03-24T01:09:57.450Z,74.85
2018-03-24T01:12:24.913Z,72.69
2018-03-24T01:14:52.381Z,71.30
2018-03-24T01:17:20.134Z,71.44
2018-03-24T01:19:47.603Z,71.61
2018-03-24T01:22:16.667Z,71.71
2018-03-24T01:24:44.662Z,71.83
2018-03-24T01:27:12.125Z,73.24
2018-03-24T01:29:39.598Z,72.60
2018-03-24T01:32:07.354Z,71.47
2018-03-24T01:34:34.823Z,71.57
2018-03-24T01:37:02.292Z,71.78
2018-03-24T01:39:30.043Z,70.82
2018-03-24T01:41:57.545Z,71.11
2018-03-24T01:44:25.010Z,72.05
2018-03-24T01:46:52.887Z,70.62
2018-03-24T01:49:20.354Z,71.26
2018-03-24T01:51:47.808Z,73.09
2018-03-24T01:54:15.719Z,71.93
2018-03-24T01:56:43.188Z,73.63
2018-03-24T01:59:10.642Z,73.65
2018-03-24T02:01:38.374Z,72.80
2018-03-24T02:04:05.842Z,73.78
2018-03-24T02:06:33.306Z,73.56
2018-03-24T02:09:01.089Z,72.35
2018-03-24T02:11:28.556Z,73.21
2018-03-24T02:13:56.030Z,72.29
2018-03-24T02:16:23.786Z,72.41
2018-03-24T02:18:51.249Z,71.59
2018-03-24T02:21:20.403Z,70.72
2018-03-24T02:23:48.886Z,72.17
2018-03-24T02:26:16.341Z,72.93
2018-03-24T02:28:43.802Z,72.19
2018-03-24T02:31:11.614Z,73.76
2018-03-24T02:33:39.077Z,74.17
2018-03-24T02:36:06.551Z,72.40
2018-03-24T02:38:34.600Z,73.56
2018-03-24T02:41:02.159Z,73.46
2018-03-24T02:43:29.626Z,72.27
2018-03-24T02:45:57.305Z,73.91
2018-03-24T02:48:24.829Z,73.42
2018-03-24T02:50:52.285Z,75.13
2018-03-24T02:53:19.982Z,73.85
2018-03-24T02:55:47.451Z,72.84
2018-03-24T02:58:14.917Z,72.90
2018-03-24T03:00:42.669Z,73.05
2018-03-24T03:03:10.130Z,73.80
2018-03-24T03:05:37.590Z,73.38
2018-03-24T03:11:03.179Z,72.15
2018-03-24T03:13:30.839Z,73.28
2018-03-24T03:15:58.296Z,75.66
2018-03-24T03:18:25.764Z,75.48
2018-03-24T03:20:53.389Z,75.34
2018-03-24T03:23:20.860Z,76.86
2018-03-24T03:25:48.669Z,77.50
2018-03-24T03:28:16.686Z,77.03
2018-03-24T03:33:48.164Z,76.75
2018-03-24T03:36:15.628Z,75.59
2018-03-24T03:38:43.105Z,76.14
2018-03-24T03:41:10.851Z,75.60
2018-03-24T03:43:38.309Z,75.81
2018-03-24T03:46:05.773Z,75.57
2018-03-24T03:48:33.533Z,74.72
2018-03-24T03:51:00.993Z,75.36
2018-03-24T03:53:28.455Z,77.17
2018-03-24T03:55:56.222Z,78.25
2018-03-24T03:58:23.684Z,77.28
2018-03-24T04:00:51.138Z,77.57
2018-03-24T04:03:18.889Z,77.12
2018-03-24T04:05:46.344Z,75.87
2018-03-24T04:08:13.800Z,76.78
2018-03-24T04:10:41.577Z,77.91
2018-03-24T04:13:09.073Z,75.93
2018-03-24T04:15:36.525Z,75.52
2018-03-24T04:18:04.280Z,76.50
2018-03-24T04:20:31.752Z,75.93
2018-03-24T04:22:59.214Z,76.30
2018-03-24T04:25:26.960Z,73.47
2018-03-24T04:27:54.810Z,72.78
2018-03-24T04:30:22.474Z,72.40
2018-03-24T04:32:50.264Z,71.21
2018-03-24T04:35:17.745Z,71.80
2018-03-24T04:37:45.215Z,71.15
2018-03-24T04:40:13.004Z,69.79
2018-03-24T04:42:40.473Z,69.66
2018-03-24T04:45:07.929Z,70.00
2018-03-24T04:47:35.529Z,69.08
2018-03-24T04:50:02.994Z,70.85
2018-03-24T04:52:30.464Z,71.28
2018-03-24T04:54:58.339Z,71.40
2018-03-24T04:57:25.798Z,70.41
2018-03-24T04:59:53.266Z,72.53
2018-03-24T05:02:21.325Z,71.03
2018-03-24T05:04:49.758Z,71.16
2018-03-24T05:07:17.227Z,69.10
2018-03-24T05:09:44.978Z,69.19
2018-03-24T05:12:12.441Z,69.53
2018-03-24T05:14:39.916Z,67.66
2018-03-24T05:17:07.629Z,66.26
2018-03-24T05:19:35.085Z,66.99
2018-03-24T05:22:02.547Z,69.48
2018-03-24T05:24:30.183Z,69.96
2018-03-24T05:26:57.634Z,69.47
2018-03-24T05:29:25.634Z,68.61
2018-03-24T05:31:53.309Z,68.92
2018-03-24T05:34:20.776Z,70.62
2018-03-24T05:36:48.994Z,70.84
2018-03-24T05:39:16.830Z,72.73
2018-03-24T05:41:44.721Z,70.24
2018-03-24T05:44:12.182Z,70.74
2018-03-24T05:46:39.913Z,71.05
2018-03-24T05:49:07.373Z,72.83
2018-03-24T05:51:34.830Z,72.17
2018-03-24T05:54:02.593Z,72.99
2018-03-24T05:56:30.066Z,71.99
2018-03-24T05:58:57.533Z,73.93
2018-03-24T06:01:25.277Z,73.56
2018-03-24T06:03:52.745Z,72.67
2018-03-24T06:06:20.206Z,71.26
2018-03-24T06:08:48.268Z,69.50
2018-03-24T06:11:15.740Z,72.85
2018-03-24T06:13:43.201Z,74.20
2018-03-24T06:16:10.935Z,71.93
2018-03-24T06:18:38.397Z,70.16
2018-03-24T06:21:05.856Z,70.43
2018-03-24T06:23:33.962Z,71.11
2018-03-24T06:26:01.456Z,68.21
2018-03-24T06:28:28.934Z,70.51
2018-03-24T06:31:00.704Z,67.96
2018-03-24T06:33:28.250Z,70.14
2018-03-24T06:35:55.746Z,100.00
2018-03-24T06:38:23.482Z,100.00
2018-03-24T06:40:50.967Z,100.00
2018-03-24T06:43:18.791Z,100.00
2018-03-24T06:45:46.522Z,100.00
2018-03-24T06:48:14.107Z,100.00
2018-03-24T06:50:41.894Z,100.00
2018-03-24T06:53:09.625Z,100.00
2018-03-24T06:55:37.102Z,100.00
2018-03-24T06:58:04.586Z,100.00
2018-03-24T07:00:32.321Z,100.00
2018-03-24T07:02:59.813Z,100.00
2018-03-24T07:05:27.290Z,100.00
2018-03-24T07:07:55.140Z,100.00
2018-03-24T07:10:22.622Z,100.00
2018-03-24T07:12:50.110Z,100.00
2018-03-24T07:15:17.990Z,100.00
2018-03-24T07:17:45.471Z,100.00
2018-03-24T07:20:12.952Z,100.00
2018-03-24T07:22:40.790Z,100.00
2018-03-24T07:25:08.281Z,100.00
2018-03-24T07:27:35.809Z,100.00
2018-03-24T07:30:03.673Z,100.00
2018-03-24T07:32:31.212Z,100.00
2018-03-24T07:34:58.701Z,100.00
2018-03-24T07:37:26.661Z,100.00
2018-03-24T07:39:54.141Z,100.00
2018-03-24T07:42:21.620Z,100.00
2018-03-24T07:44:50.287Z,100.00
2018-03-24T07:47:17.978Z,100.00
2018-03-24T07:49:45.469Z,100.00
2018-03-24T07:52:13.257Z,100.00
2018-03-24T07:54:40.734Z,100.00
2018-03-24T07:57:08.219Z,100.00
2018-03-24T07:59:36.045Z,100.00
2018-03-24T08:02:03.552Z,100.00
2018-03-24T08:04:31.038Z,100.00
2018-03-24T08:06:58.955Z,100.00
2018-03-24T08:09:26.430Z,100.00
2018-03-24T08:11:53.916Z,100.00
2018-03-24T08:14:21.963Z,100.00
2018-03-24T08:16:49.503Z,100.00
2018-03-24T08:19:16.942Z,100.00
2018-03-24T08:21:44.630Z,100.00
2018-03-24T08:24:12.123Z,100.00
2018-03-24T08:26:39.602Z,100.00
2018-03-24T08:29:07.680Z,100.00
2018-03-24T08:31:35.123Z,100.00
2018-03-24T08:34:03.855Z,100.00
2018-03-24T08:36:31.862Z,100.00
2018-03-24T08:38:59.343Z,100.00
2018-03-24T08:41:26.824Z,100.00
2018-03-24T08:43:54.532Z,100.00
2018-03-24T08:46:22.012Z,100.00
2018-03-24T08:48:49.496Z,100.00
2018-03-24T08:51:17.347Z,100.00
2018-03-24T08:53:44.837Z,100.00
2018-03-24T08:56:12.317Z,100.00
2018-03-24T08:58:40.525Z,100.00
2018-03-24T09:01:08.014Z,100.00
2018-03-24T09:03:35.506Z,100.00
2018-03-24T09:06:03.220Z,100.00
2018-03-24T09:11:12.304Z,49.54
2018-03-24T09:13:39.764Z,50.45
2018-03-24T09:16:07.541Z,51.35
2018-03-24T09:18:35.258Z,50.49
2018-03-24T09:21:02.725Z,52.18
2018-03-24T09:23:30.204Z,50.36
2018-03-24T09:25:57.946Z,48.56
2018-03-24T09:28:25.397Z,50.00
2018-03-24T09:30:52.985Z,49.09
2018-03-24T09:33:20.932Z,49.21
2018-03-24T09:35:48.781Z,49.21
2018-03-24T09:38:16.252Z,49.92
2018-03-24T09:40:44.229Z,48.97
2018-03-24T09:43:11.705Z,48.24
2018-03-24T09:45:39.181Z,46.96
2018-03-24T09:48:06.917Z,46.31
2018-03-24T09:50:34.377Z,46.69
2018-03-24T09:53:01.852Z,45.25
2018-03-24T09:55:29.577Z,42.95
2018-03-24T09:57:57.050Z,42.56
2018-03-24T10:00:24.520Z,45.42
2018-03-24T10:02:52.290Z,45.46
2018-03-24T10:05:19.805Z,43.70
2018-03-24T10:07:47.241Z,39.50
2018-03-24T10:10:15.042Z,40.91
2018-03-24T10:12:42.516Z,40.55
2018-03-24T10:15:09.984Z,40.15
2018-03-24T10:17:37.987Z,40.19
2018-03-24T10:20:05.448Z,38.97
2018-03-24T10:22:39.044Z,35.83
2018-03-24T10:25:06.509Z,37.49
2018-03-24T10:27:33.970Z,36.12
2018-03-24T10:30:01.681Z,34.49
2018-03-24T10:32:34.109Z,34.90
2018-03-24T10:35:09.546Z,34.21
2018-03-24T10:37:43.172Z,33.69
2018-03-24T10:40:10.927Z,35.88
2018-03-24T10:42:38.398Z,36.62
2018-03-24T10:45:05.869Z,39.26
2018-03-24T10:47:33.514Z,37.62
2018-03-24T10:50:00.982Z,37.29
2018-03-24T10:52:28.464Z,37.20
2018-03-24T10:54:56.292Z,35.91
2018-03-24T10:57:23.761Z,36.29
2018-03-24T10:59:51.634Z,36.99
2018-03-24T11:02:19.647Z,37.39
2018-03-24T11:04:47.110Z,36.12
2018-03-24T11:07:14.608Z,35.03
2018-03-24T11:09:42.342Z,36.98
2018-03-24T11:12:09.810Z,34.42
2018-03-24T11:14:37.273Z,35.72
2018-03-24T11:17:05.299Z,36.89
2018-03-24T11:19:32.773Z,34.45
2018-03-24T11:22:00.265Z,35.02
2018-03-24T11:24:28.277Z,35.08
2018-03-24T11:26:55.750Z,36.79
2018-03-24T11:29:23.205Z,35.24
2018-03-24T11:31:51.268Z,36.67
2018-03-24T11:34:18.739Z,33.63
2018-03-24T11:36:46.213Z,33.34
2018-03-24T11:39:14.154Z,32.90
2018-03-24T11:41:41.613Z,32.09
2018-03-24T11:44:09.085Z,32.77
2018-03-24T11:46:36.967Z,31.08
2018-03-24T11:49:04.439Z,33.90
2018-03-24T11:51:31.897Z,32.89
2018-03-24T11:53:59.641Z,31.61
2018-03-24T11:56:27.133Z,33.09
2018-03-24T11:58:54.609Z,29.63
2018-03-24T12:01:22.934Z,30.67
2018-03-24T12:03:50.456Z,31.91
2018-03-24T12:06:17.920Z,31.61
2018-03-24T12:08:45.944Z,32.35
2018-03-24T12:11:13.406Z,33.86
2018-03-24T12:13:40.870Z,34.95
2018-03-24T12:16:08.620Z,34.99
2018-03-24T12:18:36.090Z,31.86
2018-03-24T12:21:03.554Z,32.86
2018-03-24T12:23:31.634Z,32.23
2018-03-24T12:25:59.418Z,31.03
2018-03-24T12:28:27.606Z,30.36
2018-03-24T12:30:55.529Z,29.72
2018-03-24T12:33:22.991Z,29.21
2018-03-24T12:35:50.465Z,28.54
2018-03-24T12:38:18.219Z,32.68
2018-03-24T12:40:46.777Z,28.07
2018-03-24T12:43:14.237Z,29.21
2018-03-24T12:45:42.148Z,33.32
2018-03-24T12:48:09.607Z,31.40
2018-03-24T12:50:37.080Z,28.37
2018-03-24T12:53:04.818Z,28.95
2018-03-24T12:55:32.282Z,32.24
2018-03-24T12:57:59.758Z,30.01
2018-03-24T13:00:27.530Z,27.68
2018-03-24T13:02:54.993Z,27.99
2018-03-24T13:05:22.445Z,28.42
2018-03-24T13:07:50.176Z,27.39
2018-03-24T13:10:17.642Z,27.73
2018-03-24T13:12:45.102Z,28.49
2018-03-24T13:15:12.883Z,29.49
2018-03-24T13:17:40.358Z,31.74
2018-03-24T13:20:07.820Z,29.97
2018-03-24T13:22:35.630Z,30.49
2018-03-24T13:25:03.094Z,28.91
2018-03-24T13:27:30.561Z,29.07
2018-03-24T13:29:58.262Z,28.48
2018-03-24T13:32:25.727Z,26.71
2018-03-24T13:34:53.189Z,28.28
2018-03-24T13:37:20.951Z,29.67
2018-03-24T13:39:48.413Z,27.62
2018-03-24T13:42:16.253Z,27.31
2018-03-24T13:44:43.994Z,29.15
2018-03-24T13:47:11.457Z,29.23
2018-03-24T13:49:38.929Z,28.99
2018-03-24T13:52:06.629Z,26.19
2018-03-24T13:54:34.100Z,26.14
2018-03-24T13:57:01.562Z,26.71
2018-03-24T13:59:29.370Z,28.63
2018-03-24T14:01:56.831Z,29.90
2018-03-24T14:04:24.295Z,28.78
2018-03-24T14:06:52.087Z,30.02
2018-03-24T14:09:19.550Z,27.46
2018-03-24T14:11:47.010Z,31.12
2018-03-24T14:14:15.000Z,28.56
2018-03-24T14:16:42.466Z,26.94
2018-03-24T14:19:09.928Z,29.48
2018-03-24T14:21:38.051Z,30.79
2018-03-24T14:24:05.516Z,29.64
2018-03-24T14:26:32.972Z,27.35
2018-03-24T14:29:01.339Z,27.46
2018-03-24T14:31:28.827Z,27.73
2018-03-24T14:33:56.283Z,28.72
2018-03-24T14:36:23.955Z,26.65
2018-03-24T14:38:51.418Z,27.03
2018-03-24T14:41:18.881Z,26.30
2018-03-24T14:43:48.513Z,28.40
2018-03-24T14:46:15.981Z,26.99
2018-03-24T14:48:43.467Z,29.69
2018-03-24T14:51:11.201Z,27.81
2018-03-24T14:53:38.668Z,27.61
2018-03-24T14:56:06.135Z,28.69
2018-03-24T14:58:34.204Z,27.25
2018-03-24T15:01:01.678Z,28.61
2018-03-24T15:03:29.158Z,27.22
2018-03-24T15:05:56.878Z,28.81
2018-03-24T15:08:24.356Z,30.72
2018-03-24T15:10:51.826Z,32.64
2018-03-24T15:13:19.870Z,32.21
2018-03-24T15:15:47.335Z,30.93
2018-03-24T15:18:14.804Z,27.73
2018-03-24T15:20:42.560Z,27.79
2018-03-24T15:23:10.022Z,26.76
2018-03-24T15:25:37.474Z,26.18
2018-03-24T15:28:05.241Z,25.80
2018-03-24T15:33:48.705Z,27.20
2018-03-24T15:36:27.826Z,28.56
2018-03-24T15:38:55.613Z,26.64
2018-03-24T15:41:23.075Z,27.58
2018-03-24T15:43:50.921Z,27.77
2018-03-24T15:46:18.922Z,26.39
2018-03-24T15:48:46.381Z,26.93
2018-03-24T15:51:13.856Z,25.91
2018-03-24T15:53:41.596Z,27.09
2018-03-24T15:56:09.108Z,28.08
2018-03-24T15:58:36.537Z,29.81
2018-03-24T16:01:04.609Z,28.48
2018-03-24T16:03:32.078Z,30.43
2018-03-24T16:05:59.545Z,30.83
2018-03-24T16:08:27.324Z,32.10
2018-03-24T16:10:54.786Z,29.23
2018-03-24T16:13:22.254Z,29.08
2018-03-24T16:15:50.012Z,29.02
2018-03-24T16:18:17.503Z,31.50
2018-03-24T16:20:44.966Z,30.54
2018-03-24T16:23:12.670Z,29.76
2018-03-24T16:25:40.153Z,30.70
2018-03-24T16:28:07.637Z,31.00
2018-03-24T16:30:35.660Z,30.25
2018-03-24T16:33:03.127Z,30.68
2018-03-24T16:35:30.593Z,30.52
2018-03-24T16:37:58.365Z,29.76
2018-03-24T16:40:25.829Z,31.27
2018-03-24T16:42:53.299Z,33.24
2018-03-24T16:45:21.646Z,33.04
2018-03-24T16:47:49.113Z,33.86
2018-03-24T16:50:16.596Z,31.95
2018-03-24T16:52:44.327Z,34.34
2018-03-24T16:55:11.828Z,33.45
2018-03-24T16:57:39.309Z,34.15
2018-03-24T17:00:07.025Z,34.05
2018-03-24T17:02:34.498Z,33.52
2018-03-24T17:05:01.962Z,33.96
2018-03-24T17:07:29.757Z,35.69
2018-03-24T17:09:58.018Z,35.20
2018-03-24T17:12:25.486Z,36.07
2018-03-24T17:14:53.317Z,35.84
2018-03-24T17:17:20.772Z,37.99
2018-03-24T17:19:48.300Z,38.99
2018-03-24T17:22:16.312Z,39.25
2018-03-24T17:24:43.777Z,39.79
2018-03-24T17:27:11.234Z,40.00
2018-03-24T17:29:38.999Z,38.88
2018-03-24T17:32:06.471Z,37.83
2018-03-24T17:34:33.926Z,38.30
2018-03-24T17:37:01.671Z,38.89
2018-03-24T17:39:29.166Z,39.18
2018-03-24T17:41:56.640Z,39.54
2018-03-24T17:44:24.497Z,39.50
2018-03-24T17:46:52.246Z,40.54
2018-03-24T17:49:19.705Z,41.08
2018-03-24T17:51:47.710Z,41.11
2018-03-24T17:54:15.258Z,42.37
2018-03-24T17:56:42.724Z,41.14
2018-03-24T17:59:10.652Z,40.70
2018-03-24T18:01:38.238Z,39.56
2018-03-24T18:04:05.810Z,41.70
2018-03-24T18:06:33.674Z,42.09
2018-03-24T18:09:01.142Z,41.35
2018-03-24T18:11:28.614Z,41.00
2018-03-24T18:13:56.648Z,41.53
2018-03-24T18:16:24.117Z,42.28
2018-03-24T18:18:51.577Z,41.59
2018-03-24T18:21:19.657Z,41.78
2018-03-24T18:23:47.128Z,43.12
2018-03-24T18:26:14.598Z,42.00
2018-03-24T18:28:42.957Z,42.18
2018-03-24T18:31:10.420Z,41.99
2018-03-24T18:33:37.886Z,42.38
2018-03-24T18:36:06.294Z,43.38
2018-03-24T18:38:33.766Z,42.81
2018-03-24T18:41:01.238Z,41.76
2018-03-24T18:43:28.938Z,41.64
2018-03-24T18:45:56.402Z,42.92
2018-03-24T18:48:24.857Z,43.04
2018-03-24T18:50:52.552Z,43.19
2018-03-24T18:53:20.009Z,43.67
2018-03-24T18:55:47.474Z,43.14
2018-03-24T18:58:15.501Z,42.93
2018-03-24T19:00:42.961Z,43.34
2018-03-24T19:03:10.425Z,43.35
2018-03-24T19:05:38.842Z,42.85
2018-03-24T19:08:06.342Z,44.46
2018-03-24T19:10:33.826Z,43.43
2018-03-24T19:13:01.526Z,41.98
2018-03-24T19:15:29.001Z,43.94
2018-03-24T19:17:56.469Z,43.04
2018-03-24T19:20:24.236Z,43.16
2018-03-24T19:22:51.703Z,42.81
2018-03-24T19:25:19.161Z,43.18
2018-03-24T19:27:46.891Z,44.84
2018-03-24T19:30:14.353Z,44.58
2018-03-24T19:32:41.824Z,43.47
2018-03-24T19:35:09.681Z,44.18
2018-03-24T19:37:37.154Z,44.29
2018-03-24T19:40:04.613Z,44.32
2018-03-24T19:42:32.289Z,43.73
2018-03-24T19:44:59.752Z,44.88
2018-03-24T19:47:27.246Z,44.13
2018-03-24T19:49:55.574Z,43.35
2018-03-24T19:52:23.038Z,44.05
2018-03-24T19:54:50.505Z,43.57
2018-03-24T19:57:18.271Z,43.97
2018-03-24T19:59:45.730Z,44.03
2018-03-24T20:02:13.210Z,43.97
2018-03-24T20:04:40.955Z,44.33
2018-03-24T20:07:08.415Z,44.49
2018-03-24T20:09:35.892Z,43.69
2018-03-24T20:12:03.634Z,43.74
2018-03-24T20:14:31.094Z,44.18
2018-03-24T20:16:58.562Z,45.20
2018-03-24T20:19:26.332Z,44.96
2018-03-24T20:21:53.809Z,44.33
2018-03-24T20:24:21.288Z,45.11
2018-03-24T20:26:49.017Z,44.19
2018-03-24T20:29:16.527Z,44.38
2018-03-24T20:31:43.998Z,45.17
2018-03-24T20:34:12.019Z,44.07
2018-03-24T20:36:39.482Z,44.71
2018-03-24T20:39:06.944Z,44.29
2018-03-24T20:41:34.777Z,45.29
2018-03-24T20:44:02.240Z,45.66
2018-03-24T20:46:29.699Z,47.07
2018-03-24T20:48:57.692Z,46.15
2018-03-24T20:51:26.793Z,44.75
2018-03-24T20:53:54.253Z,45.53
2018-03-24T20:56:22.220Z,44.84
2018-03-24T20:58:49.686Z,43.35
2018-03-24T21:01:17.156Z,45.38
2018-03-24T21:03:45.212Z,45.03
2018-03-24T21:06:12.701Z,45.51
2018-03-24T21:08:40.156Z,45.46
2018-03-24T21:11:07.897Z,45.37
2018-03-24T21:13:35.353Z,44.56
2018-03-24T21:16:02.820Z,45.76
2018-03-24T21:18:30.593Z,45.66
2018-03-24T21:20:58.057Z,44.69
2018-03-24T21:23:25.523Z,45.36
2018-03-24T21:25:53.270Z,43.46
2018-03-24T21:28:20.737Z,43.91
2018-03-24T21:30:48.215Z,44.82
2018-03-24T21:33:15.906Z,44.49
2018-03-24T21:35:43.369Z,46.37
2018-03-24T21:38:10.834Z,46.40
2018-03-24T21:40:38.655Z,45.35
2018-03-24T21:43:06.114Z,45.23
2018-03-24T21:45:33.568Z,46.73
2018-03-24T21:48:01.333Z,44.57
2018-03-24T21:50:28.806Z,44.82
2018-03-24T21:52:57.253Z,47.33
2018-03-24T21:55:25.277Z,45.95
2018-03-24T21:57:52.739Z,45.14
2018-03-24T22:00:20.201Z,45.56
2018-03-24T22:02:47.932Z,44.90
2018-03-24T22:05:15.401Z,44.37
2018-03-24T22:07:42.882Z,44.11
2018-03-24T22:10:10.621Z,46.68
2018-03-24T22:12:38.093Z,45.73
2018-03-24T22:15:05.558Z,44.65
2018-03-24T22:17:33.310Z,46.97
2018-03-24T22:20:00.783Z,46.97
2018-03-24T22:22:28.257Z,47.69
2018-03-24T22:24:56.312Z,45.37
2018-03-24T22:27:23.769Z,46.07
2018-03-24T22:29:51.235Z,45.37
2018-03-24T22:32:19.297Z,46.75
2018-03-24T22:34:46.774Z,45.58
2018-03-24T22:37:14.242Z,45.94
2018-03-24T22:39:42.319Z,47.01
2018-03-24T22:42:09.784Z,46.31
2018-03-24T22:44:37.240Z,46.61
2018-03-24T22:47:04.953Z,45.52
2018-03-24T22:49:32.421Z,45.84
2018-03-24T22:51:59.884Z,45.51
2018-03-24T22:54:28.614Z,45.01
2018-03-24T22:56:56.082Z,46.89
2018-03-24T22:59:23.541Z,46.70
2018-03-24T23:01:51.289Z,45.67
2018-03-24T23:04:18.745Z,47.15
2018-03-24T23:06:46.766Z,48.05
2018-03-24T23:09:14.591Z,46.75
2018-03-24T23:11:42.056Z,45.02
2018-03-24T23:14:09.507Z,46.07
2018-03-24T23:16:37.272Z,46.01
2018-03-24T23:19:04.743Z,46.36
2018-03-24T23:21:32.201Z,46.33
2018-03-24T23:23:59.960Z,46.51
2018-03-24T23:26:27.424Z,45.90
2018-03-24T23:28:54.897Z,45.56
2018-03-24T23:31:22.642Z,46.38
2018-03-24T23:33:50.108Z,46.30
2018-03-24T23:36:17.570Z,46.49
2018-03-24T23:38:45.339Z,46.27
2018-03-24T23:41:12.801Z,46.09
2018-03-24T23:43:40.296Z,46.09
2018-03-24T23:46:08.020Z,46.18
2018-03-24T23:48:35.476Z,46.84
2018-03-24T23:51:02.944Z,46.04
2018-03-24T23:53:30.705Z,46.70
2018-03-24T23:55:58.856Z,46.51
2018-03-24T23:58:26.313Z,47.16
